Time;durP1;ratioP1;P1;durP2;ratioP2;P2;SDS_P1;SDS_P2;PMS_P1;PMS_P2;Temp;Humidity;BMP_temperature;BMP_pressure;BME280_temperature;BME280_humidity;BME280_pressure;Samples;Min_cycle;Max_cycle;Signal;HPM_P1;HPM_P2
2023/04/05 00:00:07;;;;;;;;;;;3.30;97.90;;;;;;4979499;28;19910;-90
2023/04/05 00:02:35;;;;;;;;;;;3.20;97.80;;;;;;4978721;28;19911;-88
2023/04/05 00:05:03;;;;;;;;;;;3.30;97.90;;;;;;4980076;28;19982;-89
2023/04/05 00:07:33;;;;;;;;;;;3.30;97.90;;;;;;4981872;28;19911;-90
2023/04/05 00:10:00;;;;;;;;;;;3.30;97.80;;;;;;4978942;28;19926;-90
2023/04/05 00:12:27;;;;;;;;;;;3.30;98.00;;;;;;4966540;28;19927;-91
2023/04/05 00:14:55;;;;;;;;;;;3.20;98.00;;;;;;4975253;28;20133;-91
2023/04/05 00:17:22;;;;;;;;;;;3.20;98.00;;;;;;4978419;28;19915;-89
2023/04/05 00:19:55;;;;;;;;;;;3.20;98.00;;;;;;4972421;28;19930;-91
2023/04/05 00:22:25;;;;;;;;;;;3.20;97.90;;;;;;4971580;28;19927;-92
2023/04/05 00:24:53;;;;;;;;;;;3.20;98.00;;;;;;4979007;28;19927;-90
2023/04/05 00:27:21;;;;;;;;;;;3.20;97.90;;;;;;4973564;28;19953;-90
2023/04/05 00:29:49;;;;;;;;;;;3.20;97.90;;;;;;4969069;28;19954;-90
2023/04/05 00:32:16;;;;;;;;;;;3.20;98.00;;;;;;4976383;28;19997;-91
2023/04/05 00:34:44;;;;;;;;;;;3.10;97.90;;;;;;4977926;28;19937;-90
2023/04/05 00:37:11;;;;;;;;;;;3.10;98.00;;;;;;4980539;28;19926;-91
2023/04/05 00:39:39;;;;;;;;;;;3.10;98.00;;;;;;4975356;28;19918;-91
2023/04/05 00:42:09;;;;;;;;;;;3.10;97.90;;;;;;4985354;28;19946;-92
2023/04/05 00:44:36;;;;;;;;;;;3.10;98.00;;;;;;4984962;28;19973;-92
2023/04/05 00:47:03;;;;;;;;;;;3.10;97.90;;;;;;4975428;28;19961;-89
2023/04/05 00:49:32;;;;;;;;;;;3.10;97.80;;;;;;4976270;28;19910;-90
2023/04/05 00:51:59;;;;;;;;;;;3.10;97.80;;;;;;4974524;28;19909;-92
2023/04/05 00:54:27;;;;;;;;;;;3.00;97.80;;;;;;4975522;28;20010;-91
2023/04/05 00:56:55;;;;;;;;;;;3.00;97.90;;;;;;4977608;28;19940;-91
2023/04/05 00:59:24;;;;;;;;;;;3.00;97.90;;;;;;4981218;28;19914;-90
2023/04/05 01:01:55;;;;;;;;;;;3.00;97.90;;;;;;4980425;28;19934;-91
2023/04/05 01:04:25;;;;;;;;;;;3.00;97.90;;;;;;4981814;28;19939;-92
2023/04/05 01:06:54;;;;;;;;;;;3.00;97.90;;;;;;4980919;28;19923;-90
2023/04/05 01:09:28;;;;;;;;;;;3.00;97.80;;;;;;4983070;28;19951;-88
2023/04/05 01:11:57;;;;;;;;;;;3.00;98.10;;;;;;4988641;28;19910;-90
2023/04/05 01:14:26;;;;;;;;;;;2.90;97.70;;;;;;4974971;28;19930;-91
2023/04/05 01:16:58;;;;;;;;;;;2.90;97.80;;;;;;4971873;28;19956;-89
2023/04/05 01:19:28;;;;;;;;;;;2.90;97.80;;;;;;4981324;28;19915;-92
2023/04/05 01:24:41;;;;;;;;;;;2.90;97.70;;;;;;4945377;29;19959;-82
2023/04/05 01:27:10;;;;;;;;;;;2.90;97.80;;;;;;4945707;29;19927;-80
2023/04/05 01:29:47;;;;;;;;;;;2.90;97.80;;;;;;4952314;29;19962;-78
2023/04/05 01:32:23;;;;;;;;;;;2.90;97.90;;;;;;4947610;29;19934;-78
2023/04/05 01:34:52;;;;;;;;;;;2.80;97.80;;;;;;4941841;29;19935;-78
2023/04/05 01:37:22;;;;;;;;;;;2.90;97.90;;;;;;4945856;29;20014;-78
2023/04/05 01:39:49;;;;;;;;;;;2.80;97.90;;;;;;4931736;29;19934;-78
2023/04/05 01:42:17;;;;;;;;;;;2.80;97.90;;;;;;4937926;29;19927;-78
2023/04/05 01:44:44;;;;;;;;;;;2.80;97.90;;;;;;4936339;29;20002;-78
2023/04/05 01:47:12;;;;;;;;;;;2.80;98.00;;;;;;4927222;29;19931;-78
2023/04/05 01:49:39;;;;;;;;;;;2.80;97.80;;;;;;4926403;29;20355;-79
2023/04/05 01:52:07;;;;;;;;;;;2.80;97.90;;;;;;4929023;29;20048;-78
2023/04/05 01:54:34;;;;;;;;;;;2.80;97.90;;;;;;4944288;29;19926;-78
2023/04/05 01:57:01;;;;;;;;;;;2.80;97.90;;;;;;4928201;29;19931;-77
2023/04/05 01:59:28;;;;;;;;;;;2.80;98.00;;;;;;4949233;29;19927;-79
2023/04/05 02:01:55;;;;;;;;;;;2.70;97.90;;;;;;4986285;28;19927;-78
2023/04/05 02:04:23;;;;;;;;;;;2.70;97.90;;;;;;4936623;29;19978;-78
2023/04/05 02:06:50;;;;;;;;;;;2.70;97.90;;;;;;4932001;29;19931;-79
2023/04/05 02:09:17;;;;;;;;;;;2.70;97.90;;;;;;4932831;29;20018;-78
2023/04/05 02:11:45;;;;;;;;;;;2.70;98.00;;;;;;4920969;29;19927;-78
2023/04/05 02:14:12;;;;;;;;;;;2.70;97.70;;;;;;4926316;29;20025;-78
2023/04/05 02:16:39;;;;;;;;;;;2.70;97.90;;;;;;4931617;29;19926;-78
2023/04/05 02:19:06;;;;;;;;;;;2.70;98.00;;;;;;4925146;29;19978;-76
2023/04/05 02:21:35;;;;;;;;;;;2.70;97.90;;;;;;4925594;29;20421;-78
2023/04/05 02:24:03;;;;;;;;;;;2.70;98.00;;;;;;4930751;29;20301;-78
2023/04/05 02:26:29;;;;;;;;;;;2.70;97.90;;;;;;4923293;29;20029;-78
2023/04/05 02:28:57;;;;;;;;;;;2.60;97.90;;;;;;4930599;29;19934;-78
2023/04/05 02:31:24;;;;;;;;;;;2.60;97.90;;;;;;4931066;29;19953;-78
2023/04/05 02:33:51;;;;;;;;;;;2.60;97.90;;;;;;4929121;29;19934;-78
2023/04/05 02:36:18;;;;;;;;;;;2.60;97.80;;;;;;4930295;29;19928;-78
2023/04/05 02:38:46;;;;;;;;;;;2.60;97.90;;;;;;4918574;29;20406;-77
2023/04/05 02:41:13;;;;;;;;;;;2.60;97.90;;;;;;4932736;29;20398;-77
2023/04/05 02:43:40;;;;;;;;;;;2.60;97.90;;;;;;4930744;29;19927;-77
2023/04/05 02:46:07;;;;;;;;;;;2.50;97.80;;;;;;4922804;29;19931;-77
2023/04/05 02:48:38;;;;;;;;;;;2.50;97.80;;;;;;4930324;29;19927;-77
2023/04/05 02:51:05;;;;;;;;;;;2.50;97.80;;;;;;4928442;29;19931;-77
2023/04/05 02:53:32;;;;;;;;;;;2.50;97.80;;;;;;4942780;29;20282;-78
2023/04/05 02:56:04;;;;;;;;;;;2.50;97.80;;;;;;4933505;29;19936;-78
2023/04/05 02:58:34;;;;;;;;;;;2.50;97.80;;;;;;4931370;29;19934;-77
2023/04/05 03:01:06;;;;;;;;;;;2.50;97.80;;;;;;4924241;29;19947;-78
2023/04/05 03:03:34;;;;;;;;;;;2.50;97.80;;;;;;4930929;29;19927;-77
2023/04/05 03:06:08;;;;;;;;;;;2.40;97.80;;;;;;4931152;29;19978;-77
2023/04/05 03:08:42;;;;;;;;;;;2.40;97.70;;;;;;4925483;29;19927;-79
2023/04/05 03:11:11;;;;;;;;;;;2.40;97.80;;;;;;4928969;29;19934;-78
2023/04/05 03:13:39;;;;;;;;;;;2.40;97.80;;;;;;4947286;29;19941;-78
2023/04/05 03:16:12;;;;;;;;;;;2.40;97.80;;;;;;4932299;29;19979;-77
2023/04/05 03:18:41;;;;;;;;;;;2.40;97.80;;;;;;4925984;29;19933;-78
2023/04/05 03:21:10;;;;;;;;;;;2.40;97.70;;;;;;4931810;29;19939;-77
2023/04/05 03:23:45;;;;;;;;;;;2.40;97.80;;;;;;4924608;29;20492;-77
2023/04/05 03:26:16;;;;;;;;;;;2.40;97.70;;;;;;4923012;29;20397;-80
2023/04/05 03:28:48;;;;;;;;;;;2.30;97.70;;;;;;4933451;29;19931;-78
2023/04/05 03:31:17;;;;;;;;;;;2.40;97.70;;;;;;4955787;28;19926;-79
2023/04/05 03:33:44;;;;;;;;;;;2.30;97.70;;;;;;4931829;29;19934;-78
2023/04/05 03:36:15;;;;;;;;;;;2.30;97.70;;;;;;4925060;29;19934;-78
2023/04/05 03:38:44;;;;;;;;;;;2.30;97.60;;;;;;4929855;29;19934;-78
2023/04/05 03:41:17;;;;;;;;;;;2.30;97.60;;;;;;4932095;29;19927;-78
2023/04/05 03:43:44;;;;;;;;;;;2.30;97.70;;;;;;4928089;29;19975;-78
2023/04/05 03:46:11;;;;;;;;;;;2.30;97.70;;;;;;4923066;29;19927;-78
2023/04/05 03:48:37;;;;;;;;;;;2.30;97.70;;;;;;4924431;29;19963;-77
2023/04/05 03:51:05;;;;;;;;;;;2.20;97.60;;;;;;4926802;29;20547;-78
2023/04/05 03:53:32;;;;;;;;;;;2.20;97.60;;;;;;4939124;29;19934;-77
2023/04/05 03:55:59;;;;;;;;;;;2.20;97.70;;;;;;4925630;29;19930;-78
2023/04/05 03:58:41;;;;;;;;;;;2.20;97.70;;;;;;4926073;29;19933;-78
2023/04/05 04:01:10;;;;;;;;;;;2.20;97.60;;;;;;4927502;29;19931;-77
2023/04/05 04:03:38;;;;;;;;;;;2.10;97.60;;;;;;4923101;29;19966;-78
2023/04/05 04:06:05;;;;;;;;;;;2.10;97.60;;;;;;4933575;29;19934;-78
2023/04/05 04:08:32;;;;;;;;;;;2.10;97.50;;;;;;4925726;29;20320;-78
2023/04/05 04:11:00;;;;;;;;;;;2.10;97.50;;;;;;4924841;29;19934;-78
2023/04/05 04:13:30;;;;;;;;;;;2.10;97.50;;;;;;4930226;29;20417;-78
2023/04/05 04:16:04;;;;;;;;;;;2.00;97.50;;;;;;4936887;29;20042;-78
2023/04/05 04:18:38;;;;;;;;;;;2.00;97.50;;;;;;4927871;29;20461;-78
2023/04/05 04:21:24;;;;;;;;;;;2.00;97.50;;;;;;4923220;29;19926;-78
2023/04/05 04:24:15;;;;;;;;;;;1.90;97.40;;;;;;4930038;29;19933;-78
2023/04/05 04:27:09;;;;;;;;;;;1.90;97.40;;;;;;4929478;29;19934;-76
2023/04/05 04:30:00;;;;;;;;;;;1.90;97.40;;;;;;4931981;29;19927;-79
2023/04/05 04:32:53;;;;;;;;;;;1.90;97.40;;;;;;4926755;29;19954;-78
2023/04/05 04:35:39;;;;;;;;;;;1.90;97.30;;;;;;4922759;29;19946;-77
2023/04/05 04:38:28;;;;;;;;;;;1.90;97.30;;;;;;4929080;29;19927;-78
2023/04/05 04:41:13;;;;;;;;;;;1.90;97.40;;;;;;4930402;29;20300;-79
2023/04/05 04:43:43;;;;;;;;;;;1.90;97.40;;;;;;4930808;29;20010;-78
2023/04/05 04:46:33;;;;;;;;;;;1.90;97.30;;;;;;4930046;29;20422;-78
2023/04/05 04:49:12;;;;;;;;;;;1.80;97.30;;;;;;4933124;29;19927;-78
2023/04/05 04:51:45;;;;;;;;;;;1.80;97.40;;;;;;4924628;29;19927;-77
2023/04/05 04:54:12;;;;;;;;;;;1.80;97.20;;;;;;4927532;29;20346;-78
2023/04/05 04:56:38;;;;;;;;;;;1.80;97.40;;;;;;4925545;29;19931;-78
2023/04/05 04:59:05;;;;;;;;;;;1.80;97.30;;;;;;4926914;29;19934;-78
2023/04/05 05:01:32;;;;;;;;;;;1.80;97.10;;;;;;4918452;29;19979;-77
2023/04/05 05:04:00;;;;;;;;;;;1.80;97.60;;;;;;4926080;29;19986;-79
2023/04/05 05:06:32;;;;;;;;;;;1.80;97.30;;;;;;4948166;28;19936;-78
2023/04/05 05:09:00;;;;;;;;;;;1.80;97.30;;;;;;4921817;29;19926;-78
2023/04/05 05:11:28;;;;;;;;;;;1.80;97.30;;;;;;4919892;29;19927;-78
2023/04/05 05:13:55;;;;;;;;;;;1.70;97.30;;;;;;4935076;29;19927;-78
2023/04/05 05:16:24;;;;;;;;;;;1.70;97.30;;;;;;4924563;29;19934;-79
2023/04/05 05:18:51;;;;;;;;;;;1.70;97.30;;;;;;4929247;29;20408;-79
2023/04/05 05:21:17;;;;;;;;;;;1.70;97.30;;;;;;4924471;29;20353;-79
2023/04/05 05:23:52;;;;;;;;;;;1.70;97.30;;;;;;4926842;29;20467;-78
2023/04/05 05:26:20;;;;;;;;;;;1.60;97.30;;;;;;4921870;29;19927;-78
2023/04/05 05:28:48;;;;;;;;;;;1.60;97.30;;;;;;4927595;29;19927;-79
2023/04/05 05:31:16;;;;;;;;;;;1.60;97.30;;;;;;4941336;29;19931;-81
2023/04/05 05:33:44;;;;;;;;;;;1.60;97.20;;;;;;4939854;29;20480;-79
2023/04/05 05:36:11;;;;;;;;;;;1.60;97.30;;;;;;4938060;29;19926;-78
2023/04/05 05:38:38;;;;;;;;;;;1.60;97.30;;;;;;4932380;29;19990;-78
2023/04/05 05:41:06;;;;;;;;;;;1.60;97.30;;;;;;4928634;29;20033;-78
2023/04/05 05:43:33;;;;;;;;;;;1.60;97.30;;;;;;4932722;29;19989;-78
2023/04/05 05:46:00;;;;;;;;;;;1.60;97.30;;;;;;4934252;29;19927;-78
2023/04/05 05:48:27;;;;;;;;;;;1.60;97.30;;;;;;4928430;29;20009;-79
2023/04/05 05:50:55;;;;;;;;;;;1.60;97.30;;;;;;4932136;29;20433;-78
2023/04/05 05:53:21;;;;;;;;;;;1.60;97.30;;;;;;4927667;29;19927;-78
2023/04/05 05:55:48;;;;;;;;;;;1.60;97.30;;;;;;4929549;29;19985;-78
2023/04/05 05:58:16;;;;;;;;;;;1.60;97.30;;;;;;4925305;29;20285;-79
2023/04/05 06:00:45;;;;;;;;;;;1.60;97.40;;;;;;4930021;29;19938;-78
2023/04/05 06:03:12;;;;;;;;;;;1.60;97.40;;;;;;4930602;29;19927;-78
2023/04/05 06:05:40;;;;;;;;;;;1.60;97.50;;;;;;4929871;29;19927;-78
2023/04/05 06:08:07;;;;;;;;;;;1.50;97.50;;;;;;4931911;29;19927;-78
2023/04/05 06:10:36;;;;;;;;;;;1.50;97.50;;;;;;4924278;29;19990;-78
2023/04/05 06:13:03;;;;;;;;;;;1.50;97.60;;;;;;4947566;28;20426;-80
2023/04/05 06:15:31;;;;;;;;;;;1.50;97.60;;;;;;4932202;29;19931;-78
2023/04/05 06:17:58;;;;;;;;;;;1.50;97.60;;;;;;4922811;29;19962;-78
2023/04/05 06:20:25;;;;;;;;;;;1.50;97.70;;;;;;4931196;29;19986;-78
2023/04/05 06:22:52;;;;;;;;;;;1.50;97.70;;;;;;4930233;29;20037;-78
2023/04/05 06:25:18;;;;;;;;;;;1.50;97.70;;;;;;4933115;29;19927;-78
2023/04/05 06:27:45;;;;;;;;;;;1.50;97.80;;;;;;4924326;29;19930;-78
2023/04/05 06:30:12;;;;;;;;;;;1.50;97.80;;;;;;4927572;29;19926;-79
2023/04/05 06:32:41;;;;;;;;;;;1.50;97.80;;;;;;4938488;29;19954;-78
2023/04/05 06:35:08;;;;;;;;;;;1.50;97.90;;;;;;4939011;29;19970;-78
2023/04/05 06:37:35;;;;;;;;;;;1.50;98.00;;;;;;4937200;29;20428;-78
2023/04/05 06:40:01;;;;;;;;;;;1.50;98.10;;;;;;4932715;29;19946;-78
2023/04/05 06:42:28;;;;;;;;;;;1.50;98.00;;;;;;4934832;29;19934;-79
2023/04/05 06:45:03;;;;;;;;;;;1.50;98.00;;;;;;4947502;29;19927;-79
2023/04/05 06:47:30;;;;;;;;;;;1.60;98.10;;;;;;4928497;29;20401;-78
2023/04/05 06:49:58;;;;;;;;;;;1.60;98.10;;;;;;4930116;29;20256;-78
2023/04/05 06:52:25;;;;;;;;;;;1.60;98.10;;;;;;4930142;29;20472;-79
2023/04/05 06:54:52;;;;;;;;;;;1.60;98.20;;;;;;4928363;29;20393;-78
2023/04/05 06:57:19;;;;;;;;;;;1.60;98.20;;;;;;4928029;29;20413;-79
2023/04/05 06:59:45;;;;;;;;;;;1.60;98.30;;;;;;4924596;29;20389;-78
2023/04/05 07:02:12;;;;;;;;;;;1.60;98.20;;;;;;4927033;29;19941;-78
2023/04/05 07:04:40;;;;;;;;;;;1.60;98.20;;;;;;4933684;29;19931;-78
2023/04/05 07:07:08;;;;;;;;;;;1.60;98.30;;;;;;4921951;29;19938;-78
2023/04/05 07:09:35;;;;;;;;;;;1.60;98.30;;;;;;4924207;29;20357;-78
2023/04/05 07:12:03;;;;;;;;;;;1.60;98.30;;;;;;4924688;29;19930;-78
2023/04/05 07:14:32;;;;;;;;;;;1.60;98.40;;;;;;4922726;29;19927;-80
2023/04/05 07:16:59;;;;;;;;;;;1.60;98.30;;;;;;4926910;29;20503;-78
2023/04/05 07:19:26;;;;;;;;;;;1.60;98.40;;;;;;4927739;29;20309;-78
2023/04/05 07:21:53;;;;;;;;;;;1.60;98.50;;;;;;4929196;29;19926;-78
2023/04/05 07:24:21;;;;;;;;;;;1.60;98.40;;;;;;4930746;29;19982;-78
2023/04/05 07:26:48;;;;;;;;;;;1.60;98.60;;;;;;4927920;29;20350;-78
2023/04/05 07:29:14;;;;;;;;;;;1.60;98.40;;;;;;4924099;29;19931;-78
2023/04/05 07:31:41;;;;;;;;;;;1.60;98.50;;;;;;4926460;29;19926;-77
2023/04/05 07:34:08;;;;;;;;;;;1.60;98.50;;;;;;4924669;29;19927;-78
2023/04/05 07:36:35;;;;;;;;;;;1.60;98.50;;;;;;4938013;29;20397;-77
2023/04/05 07:39:04;;;;;;;;;;;1.60;98.40;;;;;;4928381;29;19935;-78
2023/04/05 07:41:35;;;;;;;;;;;1.70;98.50;;;;;;4926615;29;20335;-78
2023/04/05 07:44:02;;;;;;;;;;;1.70;98.50;;;;;;4922858;29;20192;-78
2023/04/05 07:46:30;;;;;;;;;;;1.70;98.50;;;;;;4930670;29;20010;-77
2023/04/05 07:48:58;;;;;;;;;;;1.70;98.50;;;;;;4932933;29;19966;-78
2023/04/05 07:51:26;;;;;;;;;;;1.70;98.60;;;;;;4927822;29;19994;-78
2023/04/05 07:53:57;;;;;;;;;;;1.70;98.60;;;;;;4920671;29;19962;-78
2023/04/05 07:56:33;;;;;;;;;;;1.70;98.60;;;;;;4933393;29;19935;-78
2023/04/05 07:59:01;;;;;;;;;;;1.70;98.70;;;;;;4923398;29;19982;-78
2023/04/05 08:01:28;;;;;;;;;;;1.70;98.70;;;;;;4927493;29;20309;-78
2023/04/05 08:03:56;;;;;;;;;;;1.70;98.70;;;;;;4923267;29;19978;-79
2023/04/05 08:06:23;;;;;;;;;;;1.70;98.70;;;;;;4919077;29;19931;-78
2023/04/05 08:08:50;;;;;;;;;;;1.70;98.70;;;;;;4924094;29;19934;-77
2023/04/05 08:11:17;;;;;;;;;;;1.70;98.80;;;;;;4926473;29;20021;-79
2023/04/05 08:13:45;;;;;;;;;;;1.70;98.80;;;;;;4928565;29;19971;-78
2023/04/05 08:16:13;;;;;;;;;;;1.70;98.90;;;;;;4925655;29;19927;-78
2023/04/05 08:18:40;;;;;;;;;;;1.70;98.90;;;;;;4932267;29;19927;-79
2023/04/05 08:21:07;;;;;;;;;;;1.70;98.80;;;;;;4921945;29;19931;-78
2023/04/05 08:23:34;;;;;;;;;;;1.70;98.90;;;;;;4919167;29;19958;-78
2023/04/05 08:26:01;;;;;;;;;;;1.80;98.90;;;;;;4928645;29;20030;-78
2023/04/05 08:28:28;;;;;;;;;;;1.80;99.00;;;;;;4926670;29;19927;-78
2023/04/05 08:30:56;;;;;;;;;;;1.80;99.00;;;;;;4928947;29;19927;-78
2023/04/05 08:33:25;;;;;;;;;;;1.80;99.00;;;;;;4924596;29;20014;-78
2023/04/05 08:35:52;;;;;;;;;;;1.80;99.10;;;;;;4921415;29;19927;-78
2023/04/05 08:38:19;;;;;;;;;;;1.80;99.00;;;;;;4921562;29;19927;-78
2023/04/05 08:40:47;;;;;;;;;;;1.80;99.10;;;;;;4929168;29;19931;-79
2023/04/05 08:43:18;;;;;;;;;;;1.80;99.10;;;;;;4923241;29;20005;-78
2023/04/05 08:45:47;;;;;;;;;;;1.80;99.10;;;;;;4925525;29;19938;-78
2023/04/05 08:48:14;;;;;;;;;;;1.80;99.00;;;;;;4924145;29;19934;-78
2023/04/05 08:50:42;;;;;;;;;;;1.80;98.90;;;;;;4925079;29;20124;-78
2023/04/05 08:53:10;;;;;;;;;;;1.80;98.80;;;;;;4925592;29;19927;-78
2023/04/05 08:55:37;;;;;;;;;;;1.90;98.80;;;;;;4927477;29;19926;-78
2023/04/05 08:58:07;;;;;;;;;;;1.80;98.80;;;;;;4944539;29;19927;-77
2023/04/05 09:00:34;;;;;;;;;;;1.90;98.80;;;;;;4938878;29;19927;-78
2023/04/05 09:03:01;;;;;;;;;;;1.90;98.80;;;;;;4926493;29;20457;-78
2023/04/05 09:05:28;;;;;;;;;;;1.90;98.90;;;;;;4922661;29;20496;-79
2023/04/05 09:07:58;;;;;;;;;;;1.90;98.80;;;;;;4918630;29;19930;-77
2023/04/05 09:10:26;;;;;;;;;;;1.90;98.80;;;;;;4928003;29;19927;-78
2023/04/05 09:12:53;;;;;;;;;;;1.90;98.80;;;;;;4932632;29;20286;-77
2023/04/05 09:15:23;;;;;;;;;;;1.90;98.80;;;;;;4932114;29;20005;-78
2023/04/05 09:18:15;;;;;;;;;;;1.90;98.80;;;;;;4926904;29;19938;-78
2023/04/05 09:20:42;;;;;;;;;;;1.90;98.80;;;;;;4927434;29;19966;-79
2023/04/05 09:23:10;;;;;;;;;;;2.00;98.80;;;;;;4931756;29;19974;-78
2023/04/05 09:25:38;;;;;;;;;;;2.00;98.90;;;;;;4927882;29;20304;-77
2023/04/05 09:28:05;;;;;;;;;;;2.00;98.80;;;;;;4931384;29;19977;-78
2023/04/05 09:30:33;;;;;;;;;;;2.00;98.70;;;;;;4926670;29;19962;-77
2023/04/05 09:33:02;;;;;;;;;;;2.00;98.80;;;;;;4924100;29;19927;-78
2023/04/05 09:35:30;;;;;;;;;;;2.00;98.70;;;;;;4926088;29;19927;-77
2023/04/05 09:37:57;;;;;;;;;;;2.00;98.70;;;;;;4922846;29;19931;-78
2023/04/05 09:40:40;;;;;;;;;;;2.00;98.60;;;;;;4928116;29;20275;-77
2023/04/05 09:43:07;;;;;;;;;;;2.10;98.70;;;;;;4928311;29;20174;-78
2023/04/05 09:45:38;;;;;;;;;;;2.10;98.60;;;;;;4934458;29;19927;-77
2023/04/05 09:48:05;;;;;;;;;;;2.10;98.60;;;;;;4933537;29;20397;-77
2023/04/05 09:50:32;;;;;;;;;;;2.10;98.50;;;;;;4924996;29;19931;-77
2023/04/05 09:53:07;;;;;;;;;;;2.10;98.50;;;;;;4923654;29;20298;-77
2023/04/05 09:55:35;;;;;;;;;;;2.10;98.40;;;;;;4928027;29;19933;-79
2023/04/05 09:58:02;;;;;;;;;;;2.20;98.30;;;;;;4941860;29;19927;-77
2023/04/05 10:00:30;;;;;;;;;;;2.10;98.40;;;;;;4926140;29;19966;-77
2023/04/05 10:02:56;;;;;;;;;;;2.10;98.10;;;;;;4930811;29;19935;-77
2023/04/05 10:05:24;;;;;;;;;;;2.10;98.20;;;;;;4925953;29;20756;-77
2023/04/05 10:07:51;;;;;;;;;;;2.20;98.10;;;;;;4924362;29;20021;-77
2023/04/05 10:10:18;;;;;;;;;;;2.20;98.30;;;;;;4932851;29;19935;-78
2023/04/05 10:12:47;;;;;;;;;;;2.20;98.20;;;;;;4934494;29;20059;-77
2023/04/05 10:15:13;;;;;;;;;;;2.20;98.20;;;;;;4928329;29;20357;-77
2023/04/05 10:17:48;;;;;;;;;;;2.20;98.10;;;;;;4922062;29;19927;-78
2023/04/05 10:20:16;;;;;;;;;;;2.30;98.20;;;;;;4929237;29;19935;-77
2023/04/05 10:22:48;;;;;;;;;;;2.30;98.30;;;;;;4929071;29;20416;-78
2023/04/05 10:25:21;;;;;;;;;;;2.30;98.40;;;;;;4927768;29;19927;-78
2023/04/05 10:27:53;;;;;;;;;;;2.30;98.30;;;;;;4932548;29;19983;-78
2023/04/05 10:30:21;;;;;;;;;;;2.40;98.50;;;;;;4926744;29;20454;-77
2023/04/05 10:32:55;;;;;;;;;;;2.40;98.30;;;;;;4926559;29;20189;-77
2023/04/05 10:35:25;;;;;;;;;;;2.50;98.20;;;;;;4928424;29;20013;-77
2023/04/05 10:38:00;;;;;;;;;;;2.50;98.20;;;;;;4944131;29;20222;-77
2023/04/05 10:40:29;;;;;;;;;;;2.50;98.40;;;;;;4928184;29;19938;-78
2023/04/05 10:42:57;;;;;;;;;;;2.50;98.50;;;;;;4920389;29;19927;-77
2023/04/05 10:45:25;;;;;;;;;;;2.50;98.50;;;;;;4925974;29;19962;-77
2023/04/05 10:47:54;;;;;;;;;;;2.60;98.50;;;;;;4928759;29;19927;-77
2023/04/05 10:50:22;;;;;;;;;;;2.60;98.50;;;;;;4926806;29;20029;-78
2023/04/05 10:52:50;;;;;;;;;;;2.60;98.50;;;;;;4923444;29;19926;-80
2023/04/05 10:55:17;;;;;;;;;;;2.60;98.50;;;;;;4928545;29;19977;-79
2023/04/05 10:57:45;;;;;;;;;;;2.70;98.50;;;;;;4928799;29;19931;-78
2023/04/05 11:00:14;;;;;;;;;;;2.60;98.50;;;;;;4930080;29;19966;-77
2023/04/05 11:02:41;;;;;;;;;;;2.70;98.50;;;;;;4918483;29;19938;-77
2023/04/05 11:05:28;;;;;;;;;;;2.70;98.50;;;;;;4926456;29;20025;-77
2023/04/05 11:07:59;;;;;;;;;;;2.70;98.50;;;;;;4948718;28;19930;-77
2023/04/05 11:10:26;;;;;;;;;;;2.70;98.50;;;;;;4929466;29;20030;-78
2023/04/05 11:13:06;;;;;;;;;;;2.80;98.60;;;;;;4931824;29;19966;-77
2023/04/05 11:15:35;;;;;;;;;;;2.80;98.60;;;;;;4927677;29;19971;-77
2023/04/05 11:18:03;;;;;;;;;;;2.90;98.20;;;;;;4926411;29;20025;-77
2023/04/05 11:20:39;;;;;;;;;;;2.80;98.50;;;;;;4929027;29;20439;-77
2023/04/05 11:23:06;;;;;;;;;;;2.90;98.50;;;;;;4924774;29;19930;-77
2023/04/05 11:25:37;;;;;;;;;;;2.90;98.50;;;;;;4924164;29;20025;-79
2023/04/05 11:28:04;;;;;;;;;;;2.90;98.50;;;;;;4927603;29;19931;-79
2023/04/05 11:30:50;;;;;;;;;;;2.90;98.60;;;;;;4927700;29;19931;-77
2023/04/05 11:33:38;;;;;;;;;;;2.90;98.70;;;;;;4924243;29;19927;-77
2023/04/05 11:36:05;;;;;;;;;;;2.90;98.80;;;;;;4926012;29;19955;-76
2023/04/05 11:38:32;;;;;;;;;;;3.00;98.30;;;;;;4926923;29;19969;-79
2023/04/05 11:41:06;;;;;;;;;;;3.00;98.60;;;;;;4927381;29;20291;-77
2023/04/05 11:43:34;;;;;;;;;;;3.00;98.60;;;;;;4924245;29;20566;-78
2023/04/05 11:46:04;;;;;;;;;;;3.00;98.70;;;;;;4929778;29;19937;-79
2023/04/05 11:48:30;;;;;;;;;;;3.00;98.60;;;;;;4926366;29;19927;-79
2023/04/05 11:50:57;;;;;;;;;;;3.10;98.30;;;;;;4930920;29;19931;-77
2023/04/05 11:53:24;;;;;;;;;;;3.20;98.40;;;;;;4926896;29;20386;-78
2023/04/05 11:55:51;;;;;;;;;;;3.20;98.30;;;;;;4924305;29;19934;-78
2023/04/05 11:58:20;;;;;;;;;;;3.20;98.40;;;;;;4927062;29;20441;-77
2023/04/05 12:00:47;;;;;;;;;;;3.20;98.40;;;;;;4924642;29;19931;-78
2023/04/05 12:03:16;;;;;;;;;;;3.10;98.30;;;;;;4923733;29;19926;-77
2023/04/05 12:05:47;;;;;;;;;;;3.10;98.10;;;;;;4930359;29;19927;-77
2023/04/05 12:08:13;;;;;;;;;;;3.10;98.30;;;;;;4928630;29;20444;-78
2023/04/05 12:10:40;;;;;;;;;;;3.10;98.20;;;;;;4938011;29;19981;-78
2023/04/05 12:13:07;;;;;;;;;;;3.20;98.20;;;;;;4955046;29;19955;-80
2023/04/05 12:15:37;;;;;;;;;;;3.30;98.50;;;;;;4940442;29;19930;-77
2023/04/05 12:18:04;;;;;;;;;;;3.30;97.80;;;;;;4940879;29;19931;-78
2023/04/05 12:20:32;;;;;;;;;;;3.30;98.20;;;;;;4940327;28;19958;-78
2023/04/05 12:22:59;;;;;;;;;;;3.20;98.20;;;;;;4932583;29;20457;-77
2023/04/05 12:25:26;;;;;;;;;;;3.30;98.20;;;;;;4926607;29;19974;-77
2023/04/05 12:27:53;;;;;;;;;;;3.30;98.20;;;;;;4951808;28;19976;-77
2023/04/05 12:30:20;;;;;;;;;;;3.30;98.20;;;;;;4924297;29;20377;-79
2023/04/05 12:32:48;;;;;;;;;;;3.30;98.40;;;;;;4920389;29;19931;-77
2023/04/05 12:35:19;;;;;;;;;;;3.40;98.50;;;;;;4920212;29;19970;-77
2023/04/05 12:37:47;;;;;;;;;;;3.40;98.20;;;;;;4924545;29;19934;-80
2023/04/05 12:40:19;;;;;;;;;;;3.40;98.60;;;;;;4925777;29;20361;-77
2023/04/05 12:42:46;;;;;;;;;;;3.50;98.60;;;;;;4927651;29;20282;-77
2023/04/05 12:45:13;;;;;;;;;;;3.50;98.30;;;;;;4923667;29;19927;-78
2023/04/05 12:47:50;;;;;;;;;;;3.50;98.40;;;;;;4945858;28;19966;-80
2023/04/05 12:50:17;;;;;;;;;;;3.50;98.00;;;;;;4919670;29;20017;-77
2023/04/05 12:52:59;;;;;;;;;;;3.50;98.10;;;;;;4926420;29;19977;-77
2023/04/05 12:55:27;;;;;;;;;;;3.50;98.90;;;;;;4943505;28;20332;-79
2023/04/05 12:57:56;;;;;;;;;;;3.50;98.60;;;;;;4926676;29;19966;-80
2023/04/05 13:00:25;;;;;;;;;;;3.50;98.60;;;;;;4928180;29;20397;-78
2023/04/05 13:02:52;;;;;;;;;;;3.50;98.60;;;;;;4923583;29;19926;-77
2023/04/05 13:05:20;;;;;;;;;;;3.60;98.70;;;;;;4925233;29;19962;-77
2023/04/05 13:07:47;;;;;;;;;;;3.60;98.50;;;;;;4930112;29;19927;-79
2023/04/05 13:10:15;;;;;;;;;;;3.60;98.90;;;;;;4919314;29;19942;-77
2023/04/05 13:12:42;;;;;;;;;;;3.70;99.70;;;;;;4921442;29;19927;-77
2023/04/05 13:15:13;;;;;;;;;;;3.70;99.60;;;;;;4916673;29;20317;-78
2023/04/05 13:17:40;;;;;;;;;;;3.80;99.60;;;;;;4930151;29;19937;-76
2023/04/05 13:20:07;;;;;;;;;;;3.80;99.70;;;;;;4930506;29;19935;-77
2023/04/05 13:22:34;;;;;;;;;;;3.80;99.60;;;;;;4927921;29;19927;-77
2023/04/05 13:25:01;;;;;;;;;;;3.90;99.90;;;;;;4923669;29;19934;-77
2023/04/05 13:27:29;;;;;;;;;;;3.90;99.90;;;;;;4942938;29;20425;-77
2023/04/05 13:29:56;;;;;;;;;;;3.90;99.90;;;;;;4923901;29;19975;-77
2023/04/05 13:32:23;;;;;;;;;;;3.90;99.80;;;;;;4923724;29;20401;-77
2023/04/05 13:34:50;;;;;;;;;;;4.00;99.90;;;;;;4922710;29;19934;-77
2023/04/05 13:37:17;;;;;;;;;;;4.00;99.90;;;;;;4925756;29;19982;-78
2023/04/05 13:39:43;;;;;;;;;;;4.00;99.90;;;;;;4924529;29;20361;-78
2023/04/05 13:42:10;;;;;;;;;;;4.00;99.90;;;;;;4938619;29;20293;-78
2023/04/05 13:44:38;;;;;;;;;;;4.00;99.90;;;;;;4928423;29;19927;-77
2023/04/05 13:47:05;;;;;;;;;;;4.10;99.90;;;;;;4923434;29;20326;-77
2023/04/05 13:49:32;;;;;;;;;;;4.10;99.90;;;;;;4921822;29;19978;-78
2023/04/05 13:51:59;;;;;;;;;;;4.10;99.90;;;;;;4920203;29;19927;-78
2023/04/05 13:54:25;;;;;;;;;;;4.10;99.90;;;;;;4922154;29;19990;-79
2023/04/05 13:56:53;;;;;;;;;;;;;;;;;;4922809;29;19927;-77
2023/04/05 13:59:19;;;;;;;;;;;4.30;99.90;;;;;;4925397;29;19937;-77
2023/04/05 14:01:48;;;;;;;;;;;4.20;99.90;;;;;;4926774;29;19926;-77
2023/04/05 14:04:15;;;;;;;;;;;4.30;99.90;;;;;;4927278;29;19933;-78
2023/04/05 14:06:47;;;;;;;;;;;4.30;99.90;;;;;;4929595;29;19945;-77
2023/04/05 14:09:14;;;;;;;;;;;4.40;99.90;;;;;;4921977;29;20378;-79
2023/04/05 14:11:41;;;;;;;;;;;4.40;99.90;;;;;;4922854;29;19934;-77
2023/04/05 14:14:07;;;;;;;;;;;4.40;99.90;;;;;;4929668;29;20065;-79
2023/04/05 14:16:36;;;;;;;;;;;4.50;99.90;;;;;;4945099;28;19933;-77
2023/04/05 14:19:05;;;;;;;;;;;4.50;99.90;;;;;;4926202;29;20013;-77
2023/04/05 14:21:32;;;;;;;;;;;4.60;99.90;;;;;;4936043;29;19933;-77
2023/04/05 14:23:59;;;;;;;;;;;4.60;99.90;;;;;;4925961;29;19974;-80
2023/04/05 14:26:26;;;;;;;;;;;4.60;99.90;;;;;;4927947;29;19934;-78
2023/04/05 14:28:53;;;;;;;;;;;4.70;99.90;;;;;;4932038;29;19931;-78
2023/04/05 14:31:20;;;;;;;;;;;4.80;99.90;;;;;;4929144;29;20030;-77
2023/04/05 14:33:47;;;;;;;;;;;4.90;99.90;;;;;;4919733;29;19927;-78
2023/04/05 14:36:15;;;;;;;;;;;4.90;99.90;;;;;;4931069;29;19927;-78
2023/04/05 14:38:42;;;;;;;;;;;4.90;99.90;;;;;;4929414;29;19950;-77
2023/04/05 14:41:09;;;;;;;;;;;4.90;99.90;;;;;;4931892;29;19931;-79
2023/04/05 14:43:36;;;;;;;;;;;5.00;99.90;;;;;;4930064;29;20021;-77